Atlantic City, NJ

5:08 AM EDT on September 02, 2014 (GMT -0400)
Atlantic City International | Change Station
CLOSE
Current Station
Airport
Location: Atlantic City,
Elevation: 66 ft
Nearby Weather Stations

Elev 66 ft 39.45 °N, 74.57 °W | Updated 14 minutes ago

Clear
Clear
74 °F
Feels Like 74 °F
N
5
Wind Variable Wind from SSW

Today
High -- | Low -- °F
--% Chance of Precip.
Yesterday
High -- | Low -- °F
Precip. -- in
6:27 AM 7:27 PM
Waxing Crescent, 49% visible
Pressure 29.91 in
Visibility 10.0 miles
Clouds Clear
Dew Point 73 °F
Humidity 97%
Rainfall 0.00 in
Snow Depth Not available.
UV 0 out of 12
Pollen 4.80 out of 12
Air Quality Not available.
Flu Activity Not available.
METAR KACY 020854Z 20004KT 10SM CLR 23/23 A2991 RMK AO2 SLP129 T02330228 58014 $

More Conditions Fewer Conditions

Pressure 29.91 in
Visibility 10.0 miles
Clouds Clear
Dew Point 73 °F
Humidity 97%
Rainfall 0.00 in
Snow Depth Not available.
UV 0 out of 12
Pollen 4.80 out of 12
Air Quality Not available.
Flu Activity Not available.
METAR KACY 020854Z 20004KT 10SM CLR 23/23 A2991 RMK AO2 SLP129 T02330228 58014 $

More Conditions Fewer Conditions

10-Day Weather Forecast

Almanac

Astronomy

Sep. 02, 2014 Rise Set
Actual Time 6:27 AM EDT 7:27 PM EDT
Civil Twilight 5:59 AM EDT 7:54 PM EDT
Nautical Twilight 5:26 AM EDT 8:27 PM EDT
Astronomical Twilight 4:52 AM EDT 9:00 PM EDT
Moon 2:06 PM EDT No Moon Set
Length of Visible Light 13h 54m
Length of Day
12h 59m
Tomorrow will be 2m 29s shorter.
Waxing Crescent, 49% of the Moon is Illuminated
Today
Waxing Crescent
Sep 2
First Quarter
Sep 8
Full
Sep 15
Last Quarter
Sep 24
New

Today's Extremes

State Highs State Lows

Community

WunderPhotos

Upload Photos

1,749,587 photos uploaded!

WunderBlogs® & News

Nearby

Snow Depth

Station Depth Elevation
No new snow has been reported.

Earthquake Activity

City Distance Mag. Time & Date
No recent earthquake activity has been reported nearby.
Minimum magnitude displayed is 2.5.

Coastal Water Temperatures

Place Temperature
Atlantic City, NJ 75.9 °F

Nearby Weather Stations